sensor_id;sensor_type;location;lat;lon;timestamp;P1;durP1;ratioP1;P2;durP2;ratioP2
21444;SDS011;10883;51.946;20.140;2023-02-03T00:01:06;6.97;;;3.33;;
21444;SDS011;10883;51.946;20.140;2023-02-03T00:03:32;7.85;;;3.45;;
21444;SDS011;10883;51.946;20.140;2023-02-03T00:05:57;12.45;;;4.07;;
21444;SDS011;10883;51.946;20.140;2023-02-03T00:08:25;12.40;;;3.35;;
21444;SDS011;10883;51.946;20.140;2023-02-03T00:10:51;7.05;;;3.30;;
21444;SDS011;10883;51.946;20.140;2023-02-03T00:13:18;8.48;;;3.20;;
21444;SDS011;10883;51.946;20.140;2023-02-03T00:15:44;9.20;;;3.40;;
21444;SDS011;10883;51.946;20.140;2023-02-03T00:18:10;6.50;;;2.85;;
21444;SDS011;10883;51.946;20.140;2023-02-03T00:20:36;7.53;;;3.55;;
21444;SDS011;10883;51.946;20.140;2023-02-03T00:23:05;14.57;;;4.00;;
21444;SDS011;10883;51.946;20.140;2023-02-03T00:25:32;13.45;;;4.10;;
21444;SDS011;10883;51.946;20.140;2023-02-03T00:27:58;17.13;;;4.40;;
21444;SDS011;10883;51.946;20.140;2023-02-03T00:30:24;7.57;;;2.92;;
21444;SDS011;10883;51.946;20.140;2023-02-03T00:32:50;14.43;;;4.60;;
21444;SDS011;10883;51.946;20.140;2023-02-03T00:35:16;14.63;;;4.35;;
21444;SDS011;10883;51.946;20.140;2023-02-03T00:37:41;10.15;;;3.38;;
21444;SDS011;10883;51.946;20.140;2023-02-03T00:40:07;10.15;;;3.80;;
21444;SDS011;10883;51.946;20.140;2023-02-03T00:42:34;39.58;;;10.02;;
21444;SDS011;10883;51.946;20.140;2023-02-03T00:45:00;28.40;;;6.78;;
21444;SDS011;10883;51.946;20.140;2023-02-03T00:47:26;46.95;;;12.25;;
21444;SDS011;10883;51.946;20.140;2023-02-03T00:49:52;24.13;;;6.80;;
21444;SDS011;10883;51.946;20.140;2023-02-03T00:52:17;27.13;;;7.97;;
21444;SDS011;10883;51.946;20.140;2023-02-03T00:54:43;16.38;;;5.13;;
21444;SDS011;10883;51.946;20.140;2023-02-03T00:57:09;10.98;;;3.70;;
21444;SDS011;10883;51.946;20.140;2023-02-03T00:59:35;21.33;;;6.90;;
21444;SDS011;10883;51.946;20.140;2023-02-03T01:02:01;14.18;;;5.55;;
21444;SDS011;10883;51.946;20.140;2023-02-03T01:04:26;29.05;;;9.43;;
21444;SDS011;10883;51.946;20.140;2023-02-03T01:06:52;21.52;;;7.57;;
21444;SDS011;10883;51.946;20.140;2023-02-03T01:09:21;24.75;;;8.15;;
21444;SDS011;10883;51.946;20.140;2023-02-03T01:11:48;25.65;;;10.07;;
21444;SDS011;10883;51.946;20.140;2023-02-03T01:14:13;42.10;;;12.30;;
21444;SDS011;10883;51.946;20.140;2023-02-03T01:16:39;39.85;;;11.23;;
21444;SDS011;10883;51.946;20.140;2023-02-03T01:19:05;30.20;;;9.35;;
21444;SDS011;10883;51.946;20.140;2023-02-03T01:21:31;52.08;;;15.10;;
21444;SDS011;10883;51.946;20.140;2023-02-03T01:23:57;32.75;;;9.93;;
21444;SDS011;10883;51.946;20.140;2023-02-03T01:26:23;36.78;;;12.18;;
21444;SDS011;10883;51.946;20.140;2023-02-03T01:28:53;45.40;;;13.80;;
21444;SDS011;10883;51.946;20.140;2023-02-03T01:31:21;30.90;;;11.00;;
21444;SDS011;10883;51.946;20.140;2023-02-03T01:33:52;21.60;;;8.05;;
21444;SDS011;10883;51.946;20.140;2023-02-03T01:36:19;33.72;;;11.10;;
21444;SDS011;10883;51.946;20.140;2023-02-03T01:38:46;32.88;;;10.52;;
21444;SDS011;10883;51.946;20.140;2023-02-03T01:41:13;29.20;;;8.75;;
21444;SDS011;10883;51.946;20.140;2023-02-03T01:43:43;23.00;;;7.45;;
21444;SDS011;10883;51.946;20.140;2023-02-03T01:48:44;11.90;;;5.22;;
21444;SDS011;10883;51.946;20.140;2023-02-03T01:51:10;12.02;;;4.95;;
21444;SDS011;10883;51.946;20.140;2023-02-03T01:53:36;11.82;;;4.30;;
21444;SDS011;10883;51.946;20.140;2023-02-03T01:56:03;15.32;;;4.88;;
21444;SDS011;10883;51.946;20.140;2023-02-03T01:58:30;16.83;;;5.50;;
21444;SDS011;10883;51.946;20.140;2023-02-03T02:01:01;12.02;;;4.68;;
21444;SDS011;10883;51.946;20.140;2023-02-03T02:03:31;15.13;;;5.05;;
21444;SDS011;10883;51.946;20.140;2023-02-03T02:06:17;9.10;;;3.92;;
21444;SDS011;10883;51.946;20.140;2023-02-03T02:08:46;10.75;;;4.10;;
21444;SDS011;10883;51.946;20.140;2023-02-03T02:11:14;12.98;;;5.13;;
21444;SDS011;10883;51.946;20.140;2023-02-03T02:13:42;10.05;;;3.85;;
21444;SDS011;10883;51.946;20.140;2023-02-03T02:21:23;16.83;;;6.50;;
21444;SDS011;10883;51.946;20.140;2023-02-03T02:33:02;14.85;;;6.35;;
21444;SDS011;10883;51.946;20.140;2023-02-03T02:36:06;15.80;;;6.53;;
21444;SDS011;10883;51.946;20.140;2023-02-03T02:38:49;13.63;;;5.80;;
21444;SDS011;10883;51.946;20.140;2023-02-03T02:41:25;9.00;;;4.00;;
21444;SDS011;10883;51.946;20.140;2023-02-03T02:44:14;9.83;;;4.00;;
21444;SDS011;10883;51.946;20.140;2023-02-03T02:46:52;8.20;;;3.73;;
21444;SDS011;10883;51.946;20.140;2023-02-03T02:49:26;9.83;;;3.90;;
21444;SDS011;10883;51.946;20.140;2023-02-03T02:52:12;8.27;;;3.93;;
21444;SDS011;10883;51.946;20.140;2023-02-03T02:54:41;11.80;;;3.53;;
21444;SDS011;10883;51.946;20.140;2023-02-03T02:57:11;8.67;;;3.80;;
21444;SDS011;10883;51.946;20.140;2023-02-03T02:59:39;11.15;;;4.35;;
21444;SDS011;10883;51.946;20.140;2023-02-03T03:02:06;10.73;;;3.70;;
21444;SDS011;10883;51.946;20.140;2023-02-03T03:04:34;6.50;;;2.83;;
21444;SDS011;10883;51.946;20.140;2023-02-03T03:07:01;7.82;;;3.00;;
21444;SDS011;10883;51.946;20.140;2023-02-03T03:09:40;8.10;;;2.97;;
21444;SDS011;10883;51.946;20.140;2023-02-03T03:14:42;8.82;;;3.75;;
21444;SDS011;10883;51.946;20.140;2023-02-03T03:17:13;7.43;;;3.53;;
21444;SDS011;10883;51.946;20.140;2023-02-03T03:19:48;10.13;;;3.93;;
21444;SDS011;10883;51.946;20.140;2023-02-03T03:22:18;7.43;;;3.38;;
21444;SDS011;10883;51.946;20.140;2023-02-03T03:24:47;8.68;;;3.50;;
21444;SDS011;10883;51.946;20.140;2023-02-03T03:27:21;6.07;;;3.13;;
21444;SDS011;10883;51.946;20.140;2023-02-03T03:30:22;7.50;;;3.22;;
21444;SDS011;10883;51.946;20.140;2023-02-03T03:32:48;11.67;;;3.90;;
21444;SDS011;10883;51.946;20.140;2023-02-03T03:35:14;7.00;;;3.63;;
21444;SDS011;10883;51.946;20.140;2023-02-03T03:37:50;7.40;;;3.43;;
21444;SDS011;10883;51.946;20.140;2023-02-03T03:40:44;7.87;;;3.50;;
21444;SDS011;10883;51.946;20.140;2023-02-03T03:43:16;8.50;;;3.57;;
21444;SDS011;10883;51.946;20.140;2023-02-03T03:48:26;11.33;;;3.47;;
21444;SDS011;10883;51.946;20.140;2023-02-03T03:50:57;9.80;;;4.37;;
21444;SDS011;10883;51.946;20.140;2023-02-03T03:53:27;11.10;;;4.80;;
21444;SDS011;10883;51.946;20.140;2023-02-03T03:55:56;10.25;;;5.20;;
21444;SDS011;10883;51.946;20.140;2023-02-03T03:58:28;14.15;;;6.25;;
21444;SDS011;10883;51.946;20.140;2023-02-03T04:00:56;13.17;;;6.87;;
21444;SDS011;10883;51.946;20.140;2023-02-03T04:03:47;17.30;;;7.40;;
21444;SDS011;10883;51.946;20.140;2023-02-03T04:06:12;16.47;;;6.73;;
21444;SDS011;10883;51.946;20.140;2023-02-03T04:08:38;14.37;;;6.40;;
21444;SDS011;10883;51.946;20.140;2023-02-03T04:11:04;11.23;;;5.50;;
21444;SDS011;10883;51.946;20.140;2023-02-03T04:13:31;10.63;;;5.30;;
21444;SDS011;10883;51.946;20.140;2023-02-03T04:15:56;20.53;;;9.00;;
21444;SDS011;10883;51.946;20.140;2023-02-03T04:18:22;16.60;;;9.13;;
21444;SDS011;10883;51.946;20.140;2023-02-03T04:20:48;18.87;;;9.20;;
21444;SDS011;10883;51.946;20.140;2023-02-03T04:23:14;16.93;;;7.63;;
21444;SDS011;10883;51.946;20.140;2023-02-03T04:25:40;27.17;;;12.03;;
21444;SDS011;10883;51.946;20.140;2023-02-03T04:28:06;17.60;;;9.57;;
21444;SDS011;10883;51.946;20.140;2023-02-03T04:30:32;17.60;;;8.03;;
21444;SDS011;10883;51.946;20.140;2023-02-03T04:32:58;18.80;;;9.20;;
21444;SDS011;10883;51.946;20.140;2023-02-03T04:35:24;43.80;;;16.88;;
21444;SDS011;10883;51.946;20.140;2023-02-03T04:37:50;52.57;;;22.57;;
21444;SDS011;10883;51.946;20.140;2023-02-03T04:40:16;109.83;;;46.27;;
21444;SDS011;10883;51.946;20.140;2023-02-03T04:42:42;108.43;;;42.97;;
21444;SDS011;10883;51.946;20.140;2023-02-03T04:45:08;50.60;;;22.27;;
21444;SDS011;10883;51.946;20.140;2023-02-03T04:47:34;31.33;;;13.33;;
21444;SDS011;10883;51.946;20.140;2023-02-03T04:50:00;19.73;;;9.50;;
21444;SDS011;10883;51.946;20.140;2023-02-03T04:52:26;27.57;;;10.90;;
21444;SDS011;10883;51.946;20.140;2023-02-03T04:54:52;30.33;;;11.87;;
21444;SDS011;10883;51.946;20.140;2023-02-03T04:57:18;29.77;;;11.00;;
21444;SDS011;10883;51.946;20.140;2023-02-03T04:59:44;31.13;;;11.43;;
21444;SDS011;10883;51.946;20.140;2023-02-03T05:02:09;26.43;;;10.90;;
21444;SDS011;10883;51.946;20.140;2023-02-03T05:04:35;36.50;;;14.73;;
21444;SDS011;10883;51.946;20.140;2023-02-03T05:07:01;29.23;;;10.67;;
21444;SDS011;10883;51.946;20.140;2023-02-03T05:09:27;34.10;;;12.37;;
21444;SDS011;10883;51.946;20.140;2023-02-03T05:11:53;35.73;;;13.77;;
21444;SDS011;10883;51.946;20.140;2023-02-03T05:14:19;32.88;;;12.90;;
21444;SDS011;10883;51.946;20.140;2023-02-03T05:16:45;34.22;;;12.23;;
21444;SDS011;10883;51.946;20.140;2023-02-03T05:19:11;42.23;;;17.87;;
21444;SDS011;10883;51.946;20.140;2023-02-03T05:21:37;38.97;;;15.57;;
21444;SDS011;10883;51.946;20.140;2023-02-03T05:24:02;19.58;;;9.90;;
21444;SDS011;10883;51.946;20.140;2023-02-03T05:26:31;19.03;;;8.43;;
21444;SDS011;10883;51.946;20.140;2023-02-03T05:28:58;21.27;;;7.77;;
21444;SDS011;10883;51.946;20.140;2023-02-03T05:31:24;15.37;;;7.43;;
21444;SDS011;10883;51.946;20.140;2023-02-03T05:33:50;13.98;;;5.72;;
21444;SDS011;10883;51.946;20.140;2023-02-03T05:36:16;17.23;;;6.37;;
21444;SDS011;10883;51.946;20.140;2023-02-03T05:38:42;15.80;;;7.30;;
21444;SDS011;10883;51.946;20.140;2023-02-03T05:41:08;15.47;;;6.47;;
21444;SDS011;10883;51.946;20.140;2023-02-03T05:43:54;13.82;;;6.95;;
21444;SDS011;10883;51.946;20.140;2023-02-03T05:46:20;23.58;;;12.35;;
21444;SDS011;10883;51.946;20.140;2023-02-03T05:48:46;30.52;;;14.80;;
21444;SDS011;10883;51.946;20.140;2023-02-03T05:51:12;31.17;;;12.37;;
21444;SDS011;10883;51.946;20.140;2023-02-03T05:53:37;27.20;;;10.67;;
21444;SDS011;10883;51.946;20.140;2023-02-03T05:56:03;21.73;;;9.43;;
21444;SDS011;10883;51.946;20.140;2023-02-03T05:58:29;24.23;;;8.40;;
21444;SDS011;10883;51.946;20.140;2023-02-03T06:00:55;36.45;;;12.60;;
21444;SDS011;10883;51.946;20.140;2023-02-03T06:03:21;60.33;;;18.07;;
21444;SDS011;10883;51.946;20.140;2023-02-03T06:05:46;35.83;;;12.13;;
21444;SDS011;10883;51.946;20.140;2023-02-03T06:08:12;33.37;;;10.87;;
21444;SDS011;10883;51.946;20.140;2023-02-03T06:10:38;39.20;;;12.73;;
21444;SDS011;10883;51.946;20.140;2023-02-03T06:13:10;24.50;;;9.20;;
21444;SDS011;10883;51.946;20.140;2023-02-03T06:15:38;23.30;;;8.43;;
21444;SDS011;10883;51.946;20.140;2023-02-03T06:18:05;19.07;;;8.17;;
21444;SDS011;10883;51.946;20.140;2023-02-03T06:20:31;15.57;;;6.63;;
21444;SDS011;10883;51.946;20.140;2023-02-03T06:22:57;15.70;;;6.20;;
21444;SDS011;10883;51.946;20.140;2023-02-03T06:25:23;12.68;;;5.97;;
21444;SDS011;10883;51.946;20.140;2023-02-03T06:27:49;16.13;;;6.20;;
21444;SDS011;10883;51.946;20.140;2023-02-03T06:30:15;16.63;;;6.90;;
21444;SDS011;10883;51.946;20.140;2023-02-03T06:32:41;19.52;;;7.80;;
21444;SDS011;10883;51.946;20.140;2023-02-03T06:35:07;18.23;;;7.13;;
21444;SDS011;10883;51.946;20.140;2023-02-03T06:37:33;17.80;;;9.18;;
21444;SDS011;10883;51.946;20.140;2023-02-03T06:40:02;24.93;;;9.73;;
21444;SDS011;10883;51.946;20.140;2023-02-03T06:42:28;25.00;;;9.30;;
21444;SDS011;10883;51.946;20.140;2023-02-03T06:44:54;33.50;;;12.10;;
21444;SDS011;10883;51.946;20.140;2023-02-03T06:47:20;33.83;;;10.83;;
21444;SDS011;10883;51.946;20.140;2023-02-03T06:49:46;37.85;;;11.50;;
21444;SDS011;10883;51.946;20.140;2023-02-03T06:52:12;36.70;;;11.50;;
21444;SDS011;10883;51.946;20.140;2023-02-03T06:54:38;43.72;;;13.32;;
21444;SDS011;10883;51.946;20.140;2023-02-03T06:57:04;30.50;;;12.20;;
21444;SDS011;10883;51.946;20.140;2023-02-03T06:59:30;29.58;;;11.40;;
21444;SDS011;10883;51.946;20.140;2023-02-03T07:01:56;23.92;;;9.52;;
21444;SDS011;10883;51.946;20.140;2023-02-03T07:04:22;28.65;;;10.57;;
21444;SDS011;10883;51.946;20.140;2023-02-03T07:06:47;24.67;;;10.25;;
21444;SDS011;10883;51.946;20.140;2023-02-03T07:09:13;33.50;;;13.73;;
21444;SDS011;10883;51.946;20.140;2023-02-03T07:11:39;34.70;;;13.15;;
21444;SDS011;10883;51.946;20.140;2023-02-03T07:14:05;30.13;;;12.33;;
21444;SDS011;10883;51.946;20.140;2023-02-03T07:16:31;40.45;;;16.25;;
21444;SDS011;10883;51.946;20.140;2023-02-03T07:18:58;37.08;;;15.20;;
21444;SDS011;10883;51.946;20.140;2023-02-03T07:21:24;33.58;;;14.30;;
21444;SDS011;10883;51.946;20.140;2023-02-03T07:23:50;24.70;;;12.18;;
21444;SDS011;10883;51.946;20.140;2023-02-03T07:26:16;19.70;;;8.63;;
21444;SDS011;10883;51.946;20.140;2023-02-03T07:28:42;20.58;;;9.35;;
21444;SDS011;10883;51.946;20.140;2023-02-03T07:31:08;24.52;;;10.85;;
21444;SDS011;10883;51.946;20.140;2023-02-03T07:33:37;22.60;;;8.77;;
21444;SDS011;10883;51.946;20.140;2023-02-03T07:36:04;26.38;;;9.63;;
21444;SDS011;10883;51.946;20.140;2023-02-03T07:38:30;25.88;;;9.57;;
21444;SDS011;10883;51.946;20.140;2023-02-03T07:40:56;27.25;;;9.00;;
21444;SDS011;10883;51.946;20.140;2023-02-03T07:43:22;22.17;;;8.30;;
21444;SDS011;10883;51.946;20.140;2023-02-03T07:45:48;21.92;;;8.02;;
21444;SDS011;10883;51.946;20.140;2023-02-03T07:48:13;22.23;;;9.37;;
21444;SDS011;10883;51.946;20.140;2023-02-03T07:50:39;18.88;;;8.05;;
21444;SDS011;10883;51.946;20.140;2023-02-03T07:53:05;20.38;;;10.25;;
21444;SDS011;10883;51.946;20.140;2023-02-03T07:55:33;28.27;;;12.77;;
21444;SDS011;10883;51.946;20.140;2023-02-03T07:58:01;21.38;;;10.90;;
21444;SDS011;10883;51.946;20.140;2023-02-03T08:00:27;21.98;;;11.05;;
21444;SDS011;10883;51.946;20.140;2023-02-03T08:02:52;29.75;;;13.50;;
21444;SDS011;10883;51.946;20.140;2023-02-03T08:05:18;20.83;;;10.82;;
21444;SDS011;10883;51.946;20.140;2023-02-03T08:07:44;28.63;;;12.00;;
21444;SDS011;10883;51.946;20.140;2023-02-03T08:10:11;24.10;;;9.85;;
21444;SDS011;10883;51.946;20.140;2023-02-03T08:12:39;19.95;;;8.70;;
21444;SDS011;10883;51.946;20.140;2023-02-03T08:15:07;23.30;;;9.65;;
21444;SDS011;10883;51.946;20.140;2023-02-03T08:17:33;17.95;;;7.03;;
21444;SDS011;10883;51.946;20.140;2023-02-03T08:19:59;15.23;;;7.00;;
21444;SDS011;10883;51.946;20.140;2023-02-03T08:22:25;18.05;;;8.00;;
21444;SDS011;10883;51.946;20.140;2023-02-03T08:24:51;16.20;;;7.72;;
21444;SDS011;10883;51.946;20.140;2023-02-03T08:27:18;15.60;;;7.80;;
21444;SDS011;10883;51.946;20.140;2023-02-03T08:29:45;16.55;;;7.88;;
21444;SDS011;10883;51.946;20.140;2023-02-03T08:32:12;15.90;;;9.90;;
21444;SDS011;10883;51.946;20.140;2023-02-03T08:34:43;21.98;;;9.38;;
21444;SDS011;10883;51.946;20.140;2023-02-03T08:37:09;18.20;;;7.97;;
21444;SDS011;10883;51.946;20.140;2023-02-03T08:39:37;21.65;;;11.20;;
21444;SDS011;10883;51.946;20.140;2023-02-03T08:42:03;17.52;;;9.90;;
21444;SDS011;10883;51.946;20.140;2023-02-03T08:44:30;19.05;;;8.80;;
21444;SDS011;10883;51.946;20.140;2023-02-03T08:46:56;21.58;;;9.48;;
21444;SDS011;10883;51.946;20.140;2023-02-03T08:49:23;31.17;;;11.77;;
21444;SDS011;10883;51.946;20.140;2023-02-03T08:51:51;19.27;;;9.15;;
21444;SDS011;10883;51.946;20.140;2023-02-03T08:54:18;16.50;;;7.15;;
21444;SDS011;10883;51.946;20.140;2023-02-03T08:56:44;17.88;;;8.07;;
21444;SDS011;10883;51.946;20.140;2023-02-03T08:59:10;24.27;;;9.98;;
21444;SDS011;10883;51.946;20.140;2023-02-03T09:01:36;11.32;;;5.13;;
21444;SDS011;10883;51.946;20.140;2023-02-03T09:04:05;14.52;;;6.38;;
21444;SDS011;10883;51.946;20.140;2023-02-03T09:06:33;21.75;;;9.88;;
21444;SDS011;10883;51.946;20.140;2023-02-03T09:08:59;21.85;;;9.07;;
21444;SDS011;10883;51.946;20.140;2023-02-03T09:11:25;22.60;;;9.77;;
21444;SDS011;10883;51.946;20.140;2023-02-03T09:13:51;17.42;;;7.93;;
21444;SDS011;10883;51.946;20.140;2023-02-03T09:16:17;9.65;;;6.20;;
21444;SDS011;10883;51.946;20.140;2023-02-03T09:18:45;11.85;;;6.88;;
21444;SDS011;10883;51.946;20.140;2023-02-03T09:21:12;23.45;;;9.10;;
21444;SDS011;10883;51.946;20.140;2023-02-03T09:23:40;22.08;;;10.85;;
21444;SDS011;10883;51.946;20.140;2023-02-03T09:26:06;21.30;;;9.27;;
21444;SDS011;10883;51.946;20.140;2023-02-03T09:28:34;15.10;;;7.45;;
21444;SDS011;10883;51.946;20.140;2023-02-03T09:31:00;19.00;;;8.95;;
21444;SDS011;10883;51.946;20.140;2023-02-03T09:33:27;24.27;;;8.90;;
21444;SDS011;10883;51.946;20.140;2023-02-03T09:35:54;22.25;;;9.80;;
21444;SDS011;10883;51.946;20.140;2023-02-03T09:38:21;20.27;;;10.65;;
21444;SDS011;10883;51.946;20.140;2023-02-03T09:43:59;36.97;;;12.95;;
21444;SDS011;10883;51.946;20.140;2023-02-03T09:46:37;29.05;;;11.23;;
21444;SDS011;10883;51.946;20.140;2023-02-03T09:49:17;29.67;;;10.70;;
21444;SDS011;10883;51.946;20.140;2023-02-03T09:54:47;51.53;;;18.38;;
21444;SDS011;10883;51.946;20.140;2023-02-03T09:57:26;84.78;;;30.55;;
21444;SDS011;10883;51.946;20.140;2023-02-03T09:59:55;38.83;;;14.73;;
21444;SDS011;10883;51.946;20.140;2023-02-03T10:02:32;58.40;;;20.10;;
21444;SDS011;10883;51.946;20.140;2023-02-03T10:05:29;28.88;;;11.20;;
21444;SDS011;10883;51.946;20.140;2023-02-03T10:11:13;26.50;;;10.38;;
21444;SDS011;10883;51.946;20.140;2023-02-03T10:19:08;62.60;;;20.83;;
21444;SDS011;10883;51.946;20.140;2023-02-03T10:21:55;85.15;;;25.80;;
21444;SDS011;10883;51.946;20.140;2023-02-03T10:24:26;60.28;;;19.15;;
21444;SDS011;10883;51.946;20.140;2023-02-03T10:27:02;37.63;;;14.40;;
21444;SDS011;10883;51.946;20.140;2023-02-03T10:29:30;27.40;;;11.98;;
21444;SDS011;10883;51.946;20.140;2023-02-03T10:32:04;21.98;;;10.27;;
21444;SDS011;10883;51.946;20.140;2023-02-03T10:34:34;26.05;;;11.88;;
21444;SDS011;10883;51.946;20.140;2023-02-03T10:37:20;20.95;;;9.50;;
21444;SDS011;10883;51.946;20.140;2023-02-03T10:39:53;19.60;;;8.73;;
21444;SDS011;10883;51.946;20.140;2023-02-03T10:42:20;36.72;;;13.30;;
21444;SDS011;10883;51.946;20.140;2023-02-03T10:47:26;41.47;;;19.20;;
21444;SDS011;10883;51.946;20.140;2023-02-03T10:50:00;32.83;;;14.35;;
21444;SDS011;10883;51.946;20.140;2023-02-03T10:52:39;38.55;;;16.70;;
21444;SDS011;10883;51.946;20.140;2023-02-03T10:55:06;29.00;;;12.80;;
21444;SDS011;10883;51.946;20.140;2023-02-03T10:57:54;38.78;;;16.42;;
21444;SDS011;10883;51.946;20.140;2023-02-03T11:02:55;86.50;;;33.50;;
21444;SDS011;10883;51.946;20.140;2023-02-03T11:05:24;27.38;;;13.60;;
21444;SDS011;10883;51.946;20.140;2023-02-03T11:07:50;16.98;;;8.02;;
21444;SDS011;10883;51.946;20.140;2023-02-03T11:18:26;44.53;;;15.90;;
21444;SDS011;10883;51.946;20.140;2023-02-03T11:21:18;21.73;;;9.13;;
21444;SDS011;10883;51.946;20.140;2023-02-03T11:24:05;47.78;;;14.18;;
21444;SDS011;10883;51.946;20.140;2023-02-03T11:26:43;34.00;;;11.35;;
21444;SDS011;10883;51.946;20.140;2023-02-03T11:29:26;23.98;;;9.15;;
21444;SDS011;10883;51.946;20.140;2023-02-03T11:31:59;22.88;;;8.85;;
21444;SDS011;10883;51.946;20.140;2023-02-03T11:34:31;20.17;;;8.82;;
21444;SDS011;10883;51.946;20.140;2023-02-03T11:42:36;22.80;;;11.10;;
21444;SDS011;10883;51.946;20.140;2023-02-03T11:48:10;30.63;;;15.45;;
21444;SDS011;10883;51.946;20.140;2023-02-03T11:53:56;31.42;;;14.85;;
21444;SDS011;10883;51.946;20.140;2023-02-03T12:08:14;28.65;;;13.93;;
21444;SDS011;10883;51.946;20.140;2023-02-03T12:22:04;29.40;;;15.25;;
21444;SDS011;10883;51.946;20.140;2023-02-03T12:30:08;33.57;;;14.43;;
21444;SDS011;10883;51.946;20.140;2023-02-03T12:32:48;58.65;;;21.33;;
21444;SDS011;10883;51.946;20.140;2023-02-03T12:40:35;41.78;;;16.77;;
21444;SDS011;10883;51.946;20.140;2023-02-03T12:45:53;53.27;;;21.57;;
21444;SDS011;10883;51.946;20.140;2023-02-03T12:48:37;54.45;;;19.55;;
21444;SDS011;10883;51.946;20.140;2023-02-03T12:51:31;68.78;;;27.33;;
21444;SDS011;10883;51.946;20.140;2023-02-03T12:54:02;73.00;;;26.77;;
21444;SDS011;10883;51.946;20.140;2023-02-03T12:56:36;65.13;;;24.20;;
21444;SDS011;10883;51.946;20.140;2023-02-03T12:59:05;61.63;;;24.92;;
21444;SDS011;10883;51.946;20.140;2023-02-03T13:01:43;57.25;;;24.23;;
21444;SDS011;10883;51.946;20.140;2023-02-03T13:04:34;63.37;;;25.70;;
21444;SDS011;10883;51.946;20.140;2023-02-03T13:07:11;55.28;;;23.02;;
21444;SDS011;10883;51.946;20.140;2023-02-03T13:10:00;69.72;;;28.98;;
21444;SDS011;10883;51.946;20.140;2023-02-03T13:12:30;58.45;;;25.73;;
21444;SDS011;10883;51.946;20.140;2023-02-03T13:20:20;39.35;;;18.02;;
21444;SDS011;10883;51.946;20.140;2023-02-03T13:22:49;43.20;;;21.33;;
21444;SDS011;10883;51.946;20.140;2023-02-03T13:28:05;53.83;;;24.33;;
21444;SDS011;10883;51.946;20.140;2023-02-03T13:42:10;50.70;;;22.13;;
21444;SDS011;10883;51.946;20.140;2023-02-03T13:44:40;62.30;;;28.25;;
21444;SDS011;10883;51.946;20.140;2023-02-03T13:47:13;61.40;;;26.13;;
21444;SDS011;10883;51.946;20.140;2023-02-03T13:49:44;52.93;;;25.63;;
21444;SDS011;10883;51.946;20.140;2023-02-03T13:52:51;49.20;;;21.48;;
21444;SDS011;10883;51.946;20.140;2023-02-03T13:58:04;67.87;;;28.00;;
21444;SDS011;10883;51.946;20.140;2023-02-03T14:05:51;66.00;;;25.63;;
21444;SDS011;10883;51.946;20.140;2023-02-03T14:16:39;36.77;;;18.70;;
21444;SDS011;10883;51.946;20.140;2023-02-03T14:22:01;41.47;;;18.13;;
21444;SDS011;10883;51.946;20.140;2023-02-03T14:24:31;41.08;;;19.98;;
21444;SDS011;10883;51.946;20.140;2023-02-03T14:27:14;73.23;;;30.47;;
21444;SDS011;10883;51.946;20.140;2023-02-03T14:29:42;80.47;;;31.80;;
21444;SDS011;10883;51.946;20.140;2023-02-03T14:32:08;62.58;;;28.83;;
21444;SDS011;10883;51.946;20.140;2023-02-03T14:34:48;95.30;;;38.38;;
21444;SDS011;10883;51.946;20.140;2023-02-03T14:39:47;70.53;;;28.47;;
21444;SDS011;10883;51.946;20.140;2023-02-03T14:54:36;116.97;;;42.45;;
21444;SDS011;10883;51.946;20.140;2023-02-03T14:57:04;103.95;;;36.40;;
21444;SDS011;10883;51.946;20.140;2023-02-03T14:59:46;63.58;;;28.50;;
21444;SDS011;10883;51.946;20.140;2023-02-03T15:02:14;62.60;;;27.90;;
21444;SDS011;10883;51.946;20.140;2023-02-03T15:07:41;59.13;;;27.43;;
21444;SDS011;10883;51.946;20.140;2023-02-03T15:10:29;119.13;;;45.70;;
21444;SDS011;10883;51.946;20.140;2023-02-03T15:13:04;105.03;;;43.05;;
21444;SDS011;10883;51.946;20.140;2023-02-03T15:15:35;80.13;;;35.17;;
21444;SDS011;10883;51.946;20.140;2023-02-03T15:18:19;51.67;;;24.73;;
21444;SDS011;10883;51.946;20.140;2023-02-03T15:20:46;40.55;;;21.75;;
21444;SDS011;10883;51.946;20.140;2023-02-03T15:23:27;53.17;;;25.95;;
21444;SDS011;10883;51.946;20.140;2023-02-03T15:25:55;77.07;;;34.85;;
21444;SDS011;10883;51.946;20.140;2023-02-03T15:28:27;121.88;;;44.53;;
21444;SDS011;10883;51.946;20.140;2023-02-03T15:31:01;130.43;;;46.70;;
21444;SDS011;10883;51.946;20.140;2023-02-03T15:33:29;122.05;;;45.60;;
21444;SDS011;10883;51.946;20.140;2023-02-03T15:36:06;107.95;;;40.45;;
21444;SDS011;10883;51.946;20.140;2023-02-03T15:38:41;100.28;;;38.10;;
21444;SDS011;10883;51.946;20.140;2023-02-03T15:41:23;67.72;;;30.65;;
21444;SDS011;10883;51.946;20.140;2023-02-03T15:43:52;61.05;;;29.30;;
21444;SDS011;10883;51.946;20.140;2023-02-03T15:46:27;78.25;;;35.65;;
21444;SDS011;10883;51.946;20.140;2023-02-03T15:51:58;103.80;;;46.17;;
21444;SDS011;10883;51.946;20.140;2023-02-03T15:54:35;116.68;;;48.78;;
21444;SDS011;10883;51.946;20.140;2023-02-03T15:57:15;135.02;;;56.83;;
21444;SDS011;10883;51.946;20.140;2023-02-03T15:59:52;102.18;;;42.72;;
21444;SDS011;10883;51.946;20.140;2023-02-03T16:04:53;85.95;;;39.88;;
21444;SDS011;10883;51.946;20.140;2023-02-03T16:07:20;103.05;;;48.78;;
21444;SDS011;10883;51.946;20.140;2023-02-03T16:09:53;120.28;;;53.85;;
21444;SDS011;10883;51.946;20.140;2023-02-03T16:12:23;125.43;;;54.42;;
21444;SDS011;10883;51.946;20.140;2023-02-03T16:14:50;132.75;;;66.07;;
21444;SDS011;10883;51.946;20.140;2023-02-03T16:17:22;108.70;;;49.60;;
21444;SDS011;10883;51.946;20.140;2023-02-03T16:23:19;121.00;;;55.53;;
21444;SDS011;10883;51.946;20.140;2023-02-03T16:25:28;100.40;;;49.30;;
21444;SDS011;10883;51.946;20.140;2023-02-03T16:27:56;144.88;;;73.25;;
21444;SDS011;10883;51.946;20.140;2023-02-03T16:33:45;198.20;;;88.18;;
21444;SDS011;10883;51.946;20.140;2023-02-03T16:36:32;158.23;;;68.50;;
21444;SDS011;10883;51.946;20.140;2023-02-03T16:39:16;91.78;;;50.80;;
21444;SDS011;10883;51.946;20.140;2023-02-03T16:42:05;97.45;;;53.78;;
21444;SDS011;10883;51.946;20.140;2023-02-03T16:44:55;67.38;;;36.00;;
21444;SDS011;10883;51.946;20.140;2023-02-03T16:47:40;114.20;;;49.50;;
21444;SDS011;10883;51.946;20.140;2023-02-03T16:50:26;91.15;;;45.90;;
21444;SDS011;10883;51.946;20.140;2023-02-03T16:53:11;171.63;;;64.32;;
21444;SDS011;10883;51.946;20.140;2023-02-03T16:55:39;161.77;;;64.95;;
21444;SDS011;10883;51.946;20.140;2023-02-03T16:58:06;105.90;;;49.80;;
21444;SDS011;10883;51.946;20.140;2023-02-03T17:00:33;96.22;;;45.17;;
21444;SDS011;10883;51.946;20.140;2023-02-03T17:03:02;82.22;;;41.15;;
21444;SDS011;10883;51.946;20.140;2023-02-03T17:05:28;100.88;;;47.63;;
21444;SDS011;10883;51.946;20.140;2023-02-03T17:07:54;70.53;;;36.08;;
21444;SDS011;10883;51.946;20.140;2023-02-03T17:10:20;85.65;;;39.53;;
21444;SDS011;10883;51.946;20.140;2023-02-03T17:12:45;118.95;;;54.95;;
21444;SDS011;10883;51.946;20.140;2023-02-03T17:15:15;128.32;;;62.97;;
21444;SDS011;10883;51.946;20.140;2023-02-03T17:17:41;189.50;;;80.30;;